createdAt,value
2023-01-17T00:00:10.081Z,4.9
2023-01-17T00:01:10.084Z,4.9
2023-01-17T00:02:10.035Z,4.9
2023-01-17T00:03:09.987Z,2.4
2023-01-17T00:04:10.175Z,2.4
2023-01-17T00:05:09.989Z,2.4
2023-01-17T00:06:09.988Z,6.8
2023-01-17T00:07:10.131Z,6.8
2023-01-17T00:08:10.040Z,6.8
2023-01-17T00:09:10.097Z,5.3
2023-01-17T00:10:10.020Z,5.3
2023-01-17T00:11:10.007Z,5.3
2023-01-17T00:12:10.051Z,5.3
2023-01-17T00:13:09.999Z,5.6
2023-01-17T00:14:10.016Z,5.6
2023-01-17T00:15:10.116Z,5.6
2023-01-17T00:16:10.083Z,7.4
2023-01-17T00:17:10.015Z,7.4
2023-01-17T00:18:10.028Z,7.4
2023-01-17T00:19:10.137Z,4.2
2023-01-17T00:20:10.141Z,4.2
2023-01-17T00:21:10.056Z,4.2
2023-01-17T00:22:10.142Z,4.2
2023-01-17T00:23:10.061Z,4.5
2023-01-17T00:24:10.075Z,4.5
2023-01-17T00:25:10.145Z,4.5
2023-01-17T00:26:10.153Z,4.7
2023-01-17T00:27:10.095Z,4.7
2023-01-17T00:28:10.092Z,4.7
2023-01-17T00:29:10.085Z,4.7
2023-01-17T00:30:10.035Z,4.4
2023-01-17T00:31:10.092Z,4.4
2023-01-17T00:32:10.078Z,4.4
2023-01-17T00:33:10.081Z,4.8
2023-01-17T00:34:10.111Z,4.8
2023-01-17T00:35:10.081Z,4.8
2023-01-17T00:36:10.131Z,4.2
2023-01-17T00:37:10.141Z,4.2
2023-01-17T00:38:10.088Z,4.2
2023-01-17T00:39:10.088Z,4.2
2023-01-17T00:40:10.083Z,4.2
2023-01-17T00:41:10.090Z,4.2
2023-01-17T00:42:10.111Z,4.2
2023-01-17T00:43:10.128Z,3.2
2023-01-17T00:44:10.135Z,3.2
2023-01-17T00:45:10.149Z,3.2
2023-01-17T00:46:10.120Z,3.4
2023-01-17T00:47:10.199Z,3.4
2023-01-17T00:48:10.140Z,3.4
2023-01-17T00:49:10.149Z,3.4
2023-01-17T00:50:10.202Z,4
2023-01-17T00:51:10.152Z,4
2023-01-17T00:52:10.220Z,4
2023-01-17T00:53:10.127Z,3.1
2023-01-17T00:54:10.165Z,3.1
2023-01-17T00:55:10.194Z,3.1
2023-01-17T00:56:10.250Z,7
2023-01-17T00:57:10.261Z,7
2023-01-17T00:58:10.143Z,7
2023-01-17T00:59:10.199Z,7
2023-01-17T01:00:10.154Z,4.9
2023-01-17T01:01:10.355Z,4.9
2023-01-17T01:02:10.347Z,4.9
2023-01-17T01:03:10.190Z,4.8
2023-01-17T01:04:10.190Z,4.8
2023-01-17T01:05:10.179Z,4.8
2023-01-17T01:06:10.188Z,4.4
2023-01-17T01:07:10.176Z,4.4
2023-01-17T01:08:10.205Z,4.4
2023-01-17T01:09:10.288Z,4.4
2023-01-17T01:10:10.191Z,3.8
2023-01-17T01:11:10.323Z,3.8
2023-01-17T01:12:10.210Z,3.8
2023-01-17T01:13:10.209Z,3.4
2023-01-17T01:14:10.193Z,3.4
2023-01-17T01:15:10.212Z,3.4
2023-01-17T01:16:10.245Z,4.8
2023-01-17T01:17:10.193Z,4.8
2023-01-17T01:18:10.238Z,4.8
2023-01-17T01:19:10.224Z,4.8
2023-01-17T01:20:10.211Z,5.8
2023-01-17T01:21:10.215Z,5.8
2023-01-17T01:22:10.204Z,5.8
2023-01-17T01:23:10.370Z,4.6
2023-01-17T01:24:10.258Z,4.6
2023-01-17T01:25:10.330Z,4.6
2023-01-17T01:26:10.261Z,3.8
2023-01-17T01:27:10.333Z,3.8
2023-01-17T01:28:10.262Z,3.8
2023-01-17T01:29:10.331Z,3.8
2023-01-17T01:30:10.266Z,4.4
2023-01-17T01:31:10.330Z,4.4
2023-01-17T01:32:10.286Z,4.4
2023-01-17T01:33:10.287Z,4
2023-01-17T01:34:10.278Z,4
2023-01-17T01:35:10.280Z,4
2023-01-17T01:36:10.238Z,2.7
2023-01-17T01:37:10.283Z,2.7
2023-01-17T01:38:10.275Z,2.7
2023-01-17T01:39:10.350Z,2.7
2023-01-17T01:40:10.333Z,5
2023-01-17T01:41:10.297Z,5
2023-01-17T01:42:10.301Z,5
2023-01-17T01:43:10.364Z,5
2023-01-17T01:44:10.359Z,5
2023-01-17T01:45:10.287Z,5
2023-01-17T01:46:10.280Z,3.2
2023-01-17T01:47:10.389Z,3.2
2023-01-17T01:48:10.299Z,3.2
2023-01-17T01:49:10.332Z,3.2
2023-01-17T01:50:10.296Z,4.6
2023-01-17T01:51:10.296Z,4.6
2023-01-17T01:52:10.312Z,4.6
2023-01-17T01:53:10.319Z,4.4
2023-01-17T01:54:10.291Z,4.4
2023-01-17T01:55:10.382Z,4.4
2023-01-17T01:56:10.349Z,5.9
2023-01-17T01:57:10.387Z,5.9
2023-01-17T01:58:10.336Z,5.9
2023-01-17T01:59:10.334Z,5.9
2023-01-17T02:00:10.337Z,5.6
2023-01-17T02:01:10.513Z,5.6
2023-01-17T02:02:10.339Z,5.6
2023-01-17T02:03:10.514Z,6.2
2023-01-17T02:04:10.465Z,6.2
2023-01-17T02:05:10.369Z,6.2
2023-01-17T02:06:10.320Z,4.4
2023-01-17T02:07:10.468Z,4.4
2023-01-17T02:08:10.335Z,4.4
2023-01-17T02:09:10.447Z,4.4
2023-01-17T02:10:10.402Z,4.2
2023-01-17T02:11:10.406Z,4.2
2023-01-17T02:12:10.373Z,4.2
2023-01-17T02:13:10.358Z,4.5
2023-01-17T02:14:10.619Z,4.5
2023-01-17T02:15:10.371Z,4.5
2023-01-17T02:16:10.375Z,4.5
2023-01-17T02:17:10.398Z,2.4
2023-01-17T02:18:10.347Z,2.4
2023-01-17T02:19:10.413Z,2.4
2023-01-17T02:20:10.346Z,2.3
2023-01-17T02:21:10.434Z,2.3
2023-01-17T02:22:10.397Z,2.3
2023-01-17T02:23:10.405Z,3
2023-01-17T02:24:10.400Z,3
2023-01-17T02:25:10.494Z,3
2023-01-17T02:26:10.391Z,3
2023-01-17T02:27:10.436Z,5.6
2023-01-17T02:28:10.419Z,5.6
2023-01-17T02:29:10.382Z,5.6
2023-01-17T02:30:10.402Z,4.2
2023-01-17T02:31:10.398Z,4.2
2023-01-17T02:32:10.426Z,4.2
2023-01-17T02:33:10.431Z,3.8
2023-01-17T02:34:10.402Z,3.8
2023-01-17T02:35:10.524Z,3.8
2023-01-17T02:36:10.584Z,3.8
2023-01-17T02:37:10.637Z,2.4
2023-01-17T02:38:10.472Z,2.4
2023-01-17T02:39:10.498Z,2.4
2023-01-17T02:40:10.455Z,2.2
2023-01-17T02:41:10.513Z,2.2
2023-01-17T02:42:10.469Z,2.2
2023-01-17T02:43:10.439Z,3.2
2023-01-17T02:44:10.481Z,3.2
2023-01-17T02:45:10.431Z,3.2
2023-01-17T02:46:10.510Z,3.2
2023-01-17T02:47:10.444Z,4.8
2023-01-17T02:48:10.437Z,4.8
2023-01-17T02:49:10.510Z,4.8
2023-01-17T02:50:10.452Z,3.1
2023-01-17T02:51:10.453Z,3.1
2023-01-17T02:52:10.472Z,3.1
2023-01-17T02:53:10.437Z,4
2023-01-17T02:54:10.447Z,4
2023-01-17T02:55:10.445Z,4
2023-01-17T02:56:10.441Z,4
2023-01-17T02:57:10.500Z,2.4
2023-01-17T02:58:10.447Z,2.4
2023-01-17T02:59:10.495Z,2.4
2023-01-17T03:00:10.507Z,2.4
2023-01-17T03:01:10.726Z,2.4
2023-01-17T03:02:10.642Z,2.4
2023-01-17T03:03:10.521Z,5.3
2023-01-17T03:04:10.531Z,5.3
2023-01-17T03:05:10.525Z,5.3
2023-01-17T03:06:10.487Z,5.3
2023-01-17T03:07:10.528Z,2.4
2023-01-17T03:08:10.513Z,2.4
2023-01-17T03:09:10.590Z,2.4
2023-01-17T03:10:10.598Z,3
2023-01-17T03:11:10.513Z,3
2023-01-17T03:12:10.561Z,3
2023-01-17T03:13:10.561Z,3.4
2023-01-17T03:14:10.513Z,3.4
2023-01-17T03:15:10.510Z,3.4
2023-01-17T03:16:12.630Z,3.4
2023-01-17T03:17:10.541Z,0.9
2023-01-17T03:18:10.522Z,0.9
2023-01-17T03:19:10.643Z,0.9
2023-01-17T03:20:10.556Z,0.9
2023-01-17T03:21:10.555Z,0.9
2023-01-17T03:22:10.610Z,0.9
2023-01-17T03:23:10.557Z,2.4
2023-01-17T03:24:10.549Z,2.4
2023-01-17T03:25:10.557Z,2.4
2023-01-17T03:26:10.554Z,2.4
2023-01-17T03:27:10.548Z,2.6
2023-01-17T03:28:10.632Z,2.6
2023-01-17T03:29:10.695Z,2.6
2023-01-17T03:30:10.569Z,3.6
2023-01-17T03:31:10.566Z,3.6
2023-01-17T03:32:10.653Z,3.6
2023-01-17T03:33:10.623Z,2.4
2023-01-17T03:34:10.617Z,2.4
2023-01-17T03:35:10.627Z,2.4
2023-01-17T03:36:10.570Z,2.4
2023-01-17T03:37:10.629Z,2.6
2023-01-17T03:38:10.568Z,2.6
2023-01-17T03:39:10.571Z,2.6
2023-01-17T03:40:10.569Z,3.1
2023-01-17T03:41:10.576Z,3.1
2023-01-17T03:42:10.608Z,3.1
2023-01-17T03:43:10.615Z,3.8
2023-01-17T03:44:10.719Z,3.8
2023-01-17T03:45:10.662Z,3.8
2023-01-17T03:46:10.705Z,3.8
2023-01-17T03:47:10.628Z,2.7
2023-01-17T03:48:10.644Z,2.7
2023-01-17T03:49:10.624Z,2.7
2023-01-17T03:50:10.646Z,3
2023-01-17T03:51:10.637Z,3
2023-01-17T03:52:10.630Z,3
2023-01-17T03:53:10.632Z,1.5
2023-01-17T03:54:10.660Z,1.5
2023-01-17T03:55:10.641Z,1.5
2023-01-17T03:56:10.604Z,1.5
2023-01-17T03:57:10.656Z,3.2
2023-01-17T03:58:10.652Z,3.2
2023-01-17T03:59:13.018Z,3.2
2023-01-17T04:00:10.641Z,0.5
2023-01-17T04:01:10.728Z,0.5
2023-01-17T04:02:10.789Z,0.5
2023-01-17T04:03:10.632Z,0.8
2023-01-17T04:04:10.659Z,0.8
2023-01-17T04:05:10.636Z,0.8
2023-01-17T04:06:10.641Z,0.8
2023-01-17T04:07:10.683Z,3.5
2023-01-17T04:08:10.644Z,3.5
2023-01-17T04:09:10.684Z,3.5
2023-01-17T04:10:10.739Z,1.5
2023-01-17T04:11:10.783Z,1.5
2023-01-17T04:12:10.739Z,1.5
2023-01-17T04:13:10.726Z,0.8
2023-01-17T04:14:10.727Z,0.8
2023-01-17T04:15:10.741Z,0.8
2023-01-17T04:16:10.698Z,0.8
2023-01-17T04:17:10.702Z,4.4
2023-01-17T04:18:10.701Z,4.4
2023-01-17T04:19:10.771Z,4.4
2023-01-17T04:20:10.784Z,2.6
2023-01-17T04:21:10.713Z,2.6
2023-01-17T04:22:10.712Z,2.6
2023-01-17T04:23:10.718Z,3
2023-01-17T04:24:10.679Z,3
2023-01-17T04:25:10.673Z,3
2023-01-17T04:26:10.698Z,3
2023-01-17T04:27:10.717Z,1
2023-01-17T04:28:10.707Z,1
2023-01-17T04:29:11.035Z,1
2023-01-17T04:30:10.727Z,0
2023-01-17T04:31:10.794Z,0
2023-01-17T04:32:10.775Z,0
2023-01-17T04:33:10.714Z,1
2023-01-17T04:34:10.730Z,1
2023-01-17T04:35:10.735Z,1
2023-01-17T04:36:10.723Z,1
2023-01-17T04:37:10.730Z,0.7
2023-01-17T04:38:10.721Z,0.7
2023-01-17T04:39:10.769Z,0.7
2023-01-17T04:40:10.734Z,2.4
2023-01-17T04:41:10.781Z,2.4
2023-01-17T04:42:10.737Z,2.4
2023-01-17T04:43:10.809Z,2.4
2023-01-17T04:44:10.763Z,2
2023-01-17T04:45:10.830Z,2
2023-01-17T04:46:10.818Z,2
2023-01-17T04:47:10.769Z,4.2
2023-01-17T04:48:10.780Z,4.2
2023-01-17T04:49:10.786Z,4.2
2023-01-17T04:50:10.764Z,1.6
2023-01-17T04:51:10.788Z,1.6
2023-01-17T04:52:10.843Z,1.6
2023-01-17T04:53:10.846Z,1.6
2023-01-17T04:54:10.802Z,1.3
2023-01-17T04:55:10.869Z,1.3
2023-01-17T04:56:10.817Z,1.3
2023-01-17T04:57:10.871Z,0
2023-01-17T04:58:10.830Z,0
2023-01-17T04:59:10.887Z,0
2023-01-17T05:00:10.862Z,4.8
2023-01-17T05:01:11.015Z,4.8
2023-01-17T05:02:10.899Z,4.8
2023-01-17T05:03:10.900Z,4.8
2023-01-17T05:04:10.825Z,4
2023-01-17T05:05:11.055Z,4
2023-01-17T05:06:10.858Z,4
2023-01-17T05:07:10.902Z,0.8
2023-01-17T05:08:10.913Z,0.8
2023-01-17T05:09:10.941Z,0.8
2023-01-17T05:10:10.855Z,1.6
2023-01-17T05:11:10.868Z,1.6
2023-01-17T05:12:10.875Z,1.6
2023-01-17T05:13:10.876Z,1.6
2023-01-17T05:14:10.912Z,0
2023-01-17T05:15:10.863Z,0
2023-01-17T05:16:10.957Z,0
2023-01-17T05:17:10.869Z,0
2023-01-17T05:18:10.862Z,0
2023-01-17T05:19:10.872Z,0
2023-01-17T05:20:10.881Z,0.8
2023-01-17T05:21:10.870Z,0.8
2023-01-17T05:22:10.862Z,0.8
2023-01-17T05:23:10.864Z,0.8
2023-01-17T05:24:10.893Z,0.5
2023-01-17T05:25:10.888Z,0.5
2023-01-17T05:26:10.876Z,0.5
2023-01-17T05:27:10.914Z,1.1
2023-01-17T05:28:10.872Z,1.1
2023-01-17T05:29:10.918Z,1.1
2023-01-17T05:30:10.874Z,0
2023-01-17T05:31:10.918Z,0
2023-01-17T05:32:10.919Z,0
2023-01-17T05:33:10.858Z,0
2023-01-17T05:34:10.858Z,0.8
2023-01-17T05:35:11.012Z,0.8
2023-01-17T05:36:10.920Z,0.8
2023-01-17T05:37:10.950Z,0
2023-01-17T05:38:10.914Z,0
2023-01-17T05:39:11.045Z,0
2023-01-17T05:40:10.943Z,0.5
2023-01-17T05:41:10.915Z,0.5
2023-01-17T05:42:10.923Z,0.5
2023-01-17T05:43:10.919Z,0.5
2023-01-17T05:44:10.928Z,1
2023-01-17T05:45:10.912Z,1
2023-01-17T05:46:10.969Z,1
2023-01-17T05:47:10.910Z,0.6
2023-01-17T05:48:10.909Z,0.6
2023-01-17T05:49:10.913Z,0.6
2023-01-17T05:50:10.920Z,2
2023-01-17T05:51:10.916Z,2
2023-01-17T05:52:10.923Z,2
2023-01-17T05:53:10.922Z,2
2023-01-17T05:54:10.919Z,0.6
2023-01-17T05:55:10.921Z,0.6
2023-01-17T05:56:10.953Z,0.6
2023-01-17T05:57:10.964Z,0
2023-01-17T05:58:10.932Z,0
2023-01-17T05:59:13.234Z,0
2023-01-17T06:00:10.919Z,0.6
2023-01-17T06:01:10.941Z,0.6
2023-01-17T06:02:10.970Z,0.6
2023-01-17T06:03:10.921Z,0.6
2023-01-17T06:04:10.916Z,0
2023-01-17T06:05:10.918Z,0
2023-01-17T06:06:10.926Z,0
2023-01-17T06:07:10.973Z,0.9
2023-01-17T06:08:10.984Z,0.9
2023-01-17T06:09:10.993Z,0.9
2023-01-17T06:10:10.968Z,0.9
2023-01-17T06:11:10.964Z,0
2023-01-17T06:12:11.023Z,0
2023-01-17T06:13:11.003Z,0
2023-01-17T06:14:11.049Z,0
2023-01-17T06:15:11.082Z,0
2023-01-17T06:16:11.001Z,0
2023-01-17T06:17:10.991Z,0.5
2023-01-17T06:18:11.025Z,0.5
2023-01-17T06:19:10.979Z,0.5
2023-01-17T06:20:10.976Z,0.5
2023-01-17T06:21:10.986Z,0.7
2023-01-17T06:22:11.007Z,0.7
2023-01-17T06:23:11.041Z,0.7
2023-01-17T06:24:11.037Z,1.9
2023-01-17T06:25:10.989Z,1.9
2023-01-17T06:26:11.047Z,1.9
2023-01-17T06:27:11.131Z,1.9
2023-01-17T06:28:11.074Z,0.8
2023-01-17T06:29:11.134Z,0.8
2023-01-17T06:30:11.075Z,0.8
2023-01-17T06:31:11.089Z,0
2023-01-17T06:32:11.041Z,0
2023-01-17T06:33:11.120Z,0
2023-01-17T06:34:11.066Z,0.6
2023-01-17T06:35:11.039Z,0.6
2023-01-17T06:36:11.042Z,0.6
2023-01-17T06:37:11.173Z,0.6
2023-01-17T06:38:11.076Z,0.6
2023-01-17T06:39:11.845Z,0.6
2023-01-17T06:40:11.057Z,0.6
2023-01-17T06:41:11.042Z,0
2023-01-17T06:42:11.032Z,0
2023-01-17T06:43:11.035Z,0
2023-01-17T06:44:11.076Z,0
2023-01-17T06:45:11.053Z,0
2023-01-17T06:46:11.147Z,0
2023-01-17T06:47:11.037Z,0
2023-01-17T06:48:11.050Z,0.5
2023-01-17T06:49:11.044Z,0.5
2023-01-17T06:50:11.044Z,0.5
2023-01-17T06:51:11.112Z,1.1
2023-01-17T06:52:11.071Z,1.1
2023-01-17T06:53:11.083Z,1.1
2023-01-17T06:54:11.102Z,1.1
2023-01-17T06:55:11.078Z,1.1
2023-01-17T06:56:11.157Z,1.1
2023-01-17T06:57:11.114Z,1.1
2023-01-17T06:58:11.080Z,1.1
2023-01-17T06:59:11.107Z,1.1
2023-01-17T07:00:11.157Z,1.1
2023-01-17T07:01:11.165Z,0.7
2023-01-17T07:02:11.119Z,0.7
2023-01-17T07:03:11.095Z,0.7
2023-01-17T07:04:11.120Z,0.7
2023-01-17T07:05:11.186Z,0.7
2023-01-17T07:06:11.082Z,0.7
2023-01-17T07:07:11.128Z,0.7
2023-01-17T07:08:11.095Z,0
2023-01-17T07:09:11.090Z,0
2023-01-17T07:10:11.131Z,0
2023-01-17T07:11:11.102Z,0.9
2023-01-17T07:12:11.187Z,0.9
2023-01-17T07:13:11.101Z,0.9
2023-01-17T07:14:11.125Z,0.9
2023-01-17T07:15:11.150Z,0
2023-01-17T07:16:11.133Z,0
2023-01-17T07:17:11.192Z,0
2023-01-17T07:18:11.113Z,0
2023-01-17T07:19:11.205Z,0
2023-01-17T07:20:11.168Z,0
2023-01-17T07:21:11.124Z,0.7
2023-01-17T07:22:11.175Z,0.7
2023-01-17T07:23:11.228Z,0.7
2023-01-17T07:24:11.174Z,0.7
2023-01-17T07:25:11.141Z,0.5
2023-01-17T07:26:11.138Z,0.5
2023-01-17T07:27:11.137Z,0.5
2023-01-17T07:28:11.224Z,0.5
2023-01-17T07:29:11.179Z,0.5
2023-01-17T07:30:11.176Z,0.5
2023-01-17T07:31:11.325Z,1.5
2023-01-17T07:32:11.205Z,1.5
2023-01-17T07:33:11.178Z,1.5
2023-01-17T07:34:11.203Z,1.5
2023-01-17T07:35:11.179Z,0
2023-01-17T07:36:11.199Z,0
2023-01-17T07:37:12.110Z,0
2023-01-17T07:38:11.305Z,0
2023-01-17T07:39:11.193Z,0
2023-01-17T07:40:11.234Z,0
2023-01-17T07:41:11.327Z,0
2023-01-17T07:42:11.280Z,0
2023-01-17T07:43:11.229Z,0
2023-01-17T07:44:11.230Z,0
2023-01-17T07:45:11.480Z,0.6
2023-01-17T07:46:11.236Z,0.6
2023-01-17T07:47:11.268Z,0.6
2023-01-17T07:48:11.335Z,0
2023-01-17T07:49:11.256Z,0
2023-01-17T07:50:11.252Z,0
2023-01-17T07:51:11.347Z,0.8
2023-01-17T07:52:11.355Z,0.8
2023-01-17T07:53:11.341Z,0.8
2023-01-17T07:54:11.302Z,0.8
2023-01-17T07:55:11.350Z,0
2023-01-17T07:56:11.259Z,0
2023-01-17T07:57:11.304Z,0
2023-01-17T07:58:11.267Z,2.1
2023-01-17T07:59:11.323Z,2.1
2023-01-17T08:00:11.268Z,2.1
2023-01-17T08:01:11.336Z,1.1
2023-01-17T08:02:11.284Z,1.1
2023-01-17T08:03:11.259Z,1.1
2023-01-17T08:04:11.332Z,1.1
2023-01-17T08:05:11.256Z,1.5
2023-01-17T08:06:11.276Z,1.5
2023-01-17T08:07:11.319Z,1.5
2023-01-17T08:08:11.286Z,1.5
2023-01-17T08:09:11.267Z,1.5
2023-01-17T08:10:11.313Z,1.5
2023-01-17T08:11:11.266Z,0
2023-01-17T08:12:11.288Z,0
2023-01-17T08:13:11.277Z,0
2023-01-17T08:14:11.264Z,0
2023-01-17T08:15:11.274Z,0
2023-01-17T08:16:11.296Z,0
2023-01-17T08:17:11.427Z,0
2023-01-17T08:18:11.293Z,1.1
2023-01-17T08:19:11.297Z,1.1
2023-01-17T08:20:11.318Z,1.1
2023-01-17T08:21:11.300Z,0.6
2023-01-17T08:22:11.329Z,0.6
2023-01-17T08:23:11.340Z,0.6
2023-01-17T08:24:11.391Z,0.6
2023-01-17T08:25:11.327Z,0
2023-01-17T08:26:11.310Z,0
2023-01-17T08:27:11.373Z,0
2023-01-17T08:28:11.324Z,0.7
2023-01-17T08:29:11.308Z,0.7
2023-01-17T08:30:11.310Z,0.7
2023-01-17T08:31:11.384Z,0.7
2023-01-17T08:32:11.414Z,1.5
2023-01-17T08:33:11.327Z,1.5
2023-01-17T08:34:11.328Z,1.5
2023-01-17T08:35:11.325Z,0
2023-01-17T08:36:11.379Z,0
2023-01-17T08:37:11.367Z,0
2023-01-17T08:38:11.449Z,0
2023-01-17T08:39:11.392Z,0
2023-01-17T08:40:11.394Z,0
2023-01-17T08:41:11.388Z,0
2023-01-17T08:42:11.575Z,0
2023-01-17T08:43:11.461Z,0
2023-01-17T08:44:11.418Z,0
2023-01-17T08:45:11.480Z,0.6
2023-01-17T08:46:11.469Z,0.6
2023-01-17T08:47:11.417Z,0.6
2023-01-17T08:48:11.510Z,0
2023-01-17T08:49:11.420Z,0
2023-01-17T08:50:11.420Z,0
2023-01-17T08:51:11.425Z,0
2023-01-17T08:52:11.452Z,0
2023-01-17T08:53:11.483Z,0
2023-01-17T08:54:11.430Z,0
2023-01-17T08:55:11.387Z,0
2023-01-17T08:56:11.386Z,0
2023-01-17T08:57:11.442Z,0
2023-01-17T08:58:11.393Z,0
2023-01-17T08:59:11.478Z,0
2023-01-17T09:00:11.448Z,0
2023-01-17T09:01:11.583Z,0
2023-01-17T09:02:11.432Z,0.8
2023-01-17T09:03:11.503Z,0.8
2023-01-17T09:04:11.513Z,0.8
2023-01-17T09:05:11.613Z,0.7
2023-01-17T09:06:11.437Z,0
2023-01-17T09:07:11.467Z,0
2023-01-17T09:08:11.459Z,0
2023-01-17T09:09:11.513Z,0
2023-01-17T09:10:11.515Z,0
2023-01-17T09:11:11.475Z,0
2023-01-17T09:12:11.548Z,1
2023-01-17T09:13:11.561Z,1
2023-01-17T09:14:11.457Z,1
2023-01-17T09:15:11.577Z,1.6
2023-01-17T09:16:11.523Z,0.5
2023-01-17T09:17:13.114Z,0.5
2023-01-17T09:18:11.465Z,0.5
2023-01-17T09:19:11.471Z,0.7
2023-01-17T09:20:11.533Z,0.7
2023-01-17T09:21:11.473Z,0.7
2023-01-17T09:22:11.517Z,0
2023-01-17T09:23:11.478Z,0
2023-01-17T09:24:11.493Z,0
2023-01-17T09:25:11.778Z,0
2023-01-17T09:26:11.592Z,2.1
2023-01-17T09:27:11.625Z,2.1
2023-01-17T09:28:11.509Z,2.1
2023-01-17T09:29:11.560Z,0
2023-01-17T09:30:11.530Z,0
2023-01-17T09:31:11.546Z,0
2023-01-17T09:32:11.545Z,0
2023-01-17T09:33:11.614Z,0
2023-01-17T09:34:11.534Z,0
2023-01-17T09:35:11.516Z,0
2023-01-17T09:36:11.525Z,0
2023-01-17T09:37:11.559Z,0
2023-01-17T09:38:11.528Z,0
2023-01-17T09:39:11.515Z,0
2023-01-17T09:40:11.619Z,0
2023-01-17T09:41:11.526Z,0
2023-01-17T09:42:11.546Z,1.3
2023-01-17T09:43:11.631Z,1.3
2023-01-17T09:44:11.554Z,1.3
2023-01-17T09:45:11.559Z,1.3
2023-01-17T09:46:11.596Z,0.8
2023-01-17T09:47:11.638Z,0.8
2023-01-17T09:48:11.626Z,0.8
2023-01-17T09:49:11.558Z,0
2023-01-17T09:50:11.575Z,0
2023-01-17T09:51:11.672Z,0
2023-01-17T09:52:11.594Z,0
2023-01-17T09:53:11.615Z,0
2023-01-17T09:54:11.591Z,0
2023-01-17T09:55:11.617Z,0
2023-01-17T09:56:11.650Z,0
2023-01-17T09:57:11.731Z,0
2023-01-17T09:58:11.618Z,0
2023-01-17T09:59:11.634Z,0
2023-01-17T10:00:11.626Z,0
2023-01-17T10:01:11.799Z,0
2023-01-17T10:02:11.924Z,0
2023-01-17T10:03:11.799Z,0
2023-01-17T10:04:11.647Z,0
2023-01-17T10:05:11.675Z,0
2023-01-17T10:06:11.595Z,0
2023-01-17T10:07:11.639Z,0
2023-01-17T10:08:11.592Z,0
2023-01-17T10:09:11.633Z,0
2023-01-17T10:10:11.599Z,0
2023-01-17T10:11:11.701Z,0
2023-01-17T10:12:11.777Z,0
2023-01-17T10:13:11.763Z,0.5
2023-01-17T10:14:11.620Z,0.5
2023-01-17T10:15:11.674Z,0.5
2023-01-17T10:16:11.624Z,0.8
2023-01-17T10:17:11.692Z,0.8
2023-01-17T10:18:19.127Z,0.8
2023-01-17T10:19:11.652Z,1.1
2023-01-17T10:20:11.625Z,1.1
2023-01-17T10:21:11.742Z,1.1
2023-01-17T10:22:11.700Z,1.1
2023-01-17T10:23:11.750Z,0.5
2023-01-17T10:24:11.653Z,0.5
2023-01-17T10:25:11.668Z,0.5
2023-01-17T10:26:11.706Z,0
2023-01-17T10:27:11.830Z,0
2023-01-17T10:28:11.734Z,0
2023-01-17T10:29:11.683Z,0
2023-01-17T10:30:11.670Z,0.6
2023-01-17T10:31:11.766Z,0.6
2023-01-17T10:32:11.710Z,0.6
2023-01-17T10:33:11.690Z,0.8
2023-01-17T10:34:11.661Z,0.8
2023-01-17T10:35:11.975Z,0.8
2023-01-17T10:36:11.670Z,0.8
2023-01-17T10:37:11.710Z,0
2023-01-17T10:38:11.682Z,0
2023-01-17T10:39:11.674Z,0
2023-01-17T10:40:11.658Z,0
2023-01-17T10:41:11.716Z,0
2023-01-17T10:42:11.728Z,0
2023-01-17T10:43:11.691Z,0
2023-01-17T10:44:11.686Z,0
2023-01-17T10:45:11.687Z,0
2023-01-17T10:46:11.689Z,0
2023-01-17T10:47:11.815Z,0
2023-01-17T10:48:11.696Z,0
2023-01-17T10:49:11.743Z,0
2023-01-17T10:50:11.702Z,0
2023-01-17T10:51:11.777Z,0
2023-01-17T10:52:11.760Z,0
2023-01-17T10:53:11.718Z,0
2023-01-17T10:54:11.693Z,0
2023-01-17T10:55:11.720Z,0
2023-01-17T10:56:11.702Z,0
2023-01-17T10:57:11.788Z,1.9
2023-01-17T10:58:11.723Z,1.9
2023-01-17T10:59:11.798Z,1.9
2023-01-17T11:00:11.750Z,0.6
2023-01-17T11:01:11.824Z,0.6
2023-01-17T11:02:11.859Z,0.6
2023-01-17T11:03:11.758Z,1.5
2023-01-17T11:04:11.733Z,1.5
2023-01-17T11:05:11.758Z,1.5
2023-01-17T11:06:11.749Z,1.5
2023-01-17T11:07:11.885Z,0
2023-01-17T11:08:11.738Z,0
2023-01-17T11:09:11.842Z,0
2023-01-17T11:10:11.761Z,0.5
2023-01-17T11:11:11.816Z,0.5
2023-01-17T11:12:11.808Z,0.5
2023-01-17T11:13:11.818Z,0.9
2023-01-17T11:14:11.780Z,0.9
2023-01-17T11:15:11.829Z,0.9
2023-01-17T11:16:11.895Z,0.9
2023-01-17T11:17:11.865Z,0.5
2023-01-17T11:18:11.777Z,0.5
2023-01-17T11:19:11.854Z,0.5
2023-01-17T11:20:11.814Z,1.3
2023-01-17T11:21:11.820Z,1.3
2023-01-17T11:22:11.808Z,1.3
2023-01-17T11:23:11.817Z,0
2023-01-17T11:24:11.813Z,0
2023-01-17T11:25:11.967Z,0
2023-01-17T11:26:11.802Z,0
2023-01-17T11:27:11.813Z,0.8
2023-01-17T11:28:11.814Z,0.8
2023-01-17T11:29:11.826Z,0.8
2023-01-17T11:30:11.825Z,0.8
2023-01-17T11:31:11.858Z,0.8
2023-01-17T11:32:11.842Z,0.8
2023-01-17T11:33:11.828Z,0.8
2023-01-17T11:34:11.821Z,1.1
2023-01-17T11:35:11.813Z,1.1
2023-01-17T11:36:11.799Z,1.1
2023-01-17T11:37:11.883Z,0.9
2023-01-17T11:38:11.809Z,0.9
2023-01-17T11:39:11.823Z,0.9
2023-01-17T11:40:11.826Z,0
2023-01-17T11:41:11.831Z,0
2023-01-17T11:42:11.889Z,0
2023-01-17T11:43:11.895Z,0
2023-01-17T11:44:11.826Z,0.7
2023-01-17T11:45:11.917Z,0.7
2023-01-17T11:46:11.905Z,0.7
2023-01-17T11:47:11.944Z,1.1
2023-01-17T11:48:11.903Z,1.1
2023-01-17T11:49:11.874Z,1.1
2023-01-17T11:50:11.918Z,1.1
2023-01-17T11:51:11.869Z,1.1
2023-01-17T11:52:11.920Z,1.1
2023-01-17T11:53:11.925Z,1.1
2023-01-17T11:54:11.921Z,0.8
2023-01-17T11:55:11.866Z,0.8
2023-01-17T11:56:11.881Z,0.8
2023-01-17T11:57:11.971Z,0.6
2023-01-17T11:58:11.875Z,0.6
2023-01-17T11:59:12.140Z,0.6
2023-01-17T12:00:11.903Z,0.6
2023-01-17T12:01:11.969Z,0
2023-01-17T12:02:11.905Z,0
2023-01-17T12:03:11.923Z,0
2023-01-17T12:04:11.910Z,1
2023-01-17T12:05:11.932Z,1
2023-01-17T12:06:11.935Z,1
2023-01-17T12:07:11.918Z,0.6
2023-01-17T12:08:11.929Z,0.6
2023-01-17T12:09:11.970Z,0.6
2023-01-17T12:10:11.936Z,0.6
2023-01-17T12:11:11.977Z,1.2
2023-01-17T12:12:11.952Z,1.2
2023-01-17T12:13:12.025Z,1.2
2023-01-17T12:14:12.002Z,0.8
2023-01-17T12:15:11.966Z,0.8
2023-01-17T12:16:11.995Z,0.8
2023-01-17T12:17:12.021Z,0.8
2023-01-17T12:18:11.943Z,0
2023-01-17T12:19:12.026Z,0
2023-01-17T12:20:11.981Z,0
2023-01-17T12:21:11.968Z,1.1
2023-01-17T12:22:11.972Z,1.1
2023-01-17T12:23:11.967Z,1.1
2023-01-17T12:24:11.949Z,1.1
2023-01-17T12:25:11.970Z,0.7
2023-01-17T12:26:11.980Z,0.7
2023-01-17T12:27:12.014Z,0.7
2023-01-17T12:28:11.954Z,1.3
2023-01-17T12:29:12.023Z,1.3
2023-01-17T12:30:11.973Z,1.3
2023-01-17T12:31:11.999Z,0
2023-01-17T12:32:11.974Z,0
2023-01-17T12:33:12.055Z,0
2023-01-17T12:34:12.029Z,0
2023-01-17T12:35:11.986Z,1
2023-01-17T12:36:11.990Z,1
2023-01-17T12:37:12.033Z,1
2023-01-17T12:38:20.788Z,1.5
2023-01-17T12:39:12.055Z,1.5
2023-01-17T12:40:11.990Z,1.5
2023-01-17T12:41:12.210Z,1.1
2023-01-17T12:42:12.046Z,1.1
2023-01-17T12:43:12.198Z,1.1
2023-01-17T12:44:12.009Z,1.1
2023-01-17T12:45:12.094Z,1.5
2023-01-17T12:46:12.100Z,1.5
2023-01-17T12:47:12.048Z,1.5
2023-01-17T12:48:12.006Z,0.6
2023-01-17T12:49:12.193Z,0.6
2023-01-17T12:50:11.995Z,0.6
2023-01-17T12:51:12.022Z,0.6
2023-01-17T12:52:12.036Z,0
2023-01-17T12:53:12.035Z,0
2023-01-17T12:54:12.017Z,0
2023-01-17T12:55:12.027Z,0
2023-01-17T12:56:12.003Z,0
2023-01-17T12:57:13.872Z,0
2023-01-17T12:58:12.019Z,0
2023-01-17T12:59:12.031Z,0
2023-01-17T13:00:12.000Z,0
2023-01-17T13:01:12.185Z,0
2023-01-17T13:02:12.101Z,0
2023-01-17T13:03:12.093Z,0
2023-01-17T13:04:12.045Z,0
2023-01-17T13:05:12.096Z,1.5
2023-01-17T13:06:12.099Z,1.5
2023-01-17T13:07:12.184Z,1.5
2023-01-17T13:08:12.107Z,1.5
2023-01-17T13:09:12.131Z,0
2023-01-17T13:10:12.131Z,0
2023-01-17T13:11:12.069Z,0
2023-01-17T13:12:12.052Z,0.5
2023-01-17T13:13:12.152Z,0.5
2023-01-17T13:14:12.095Z,0.5
2023-01-17T13:15:12.091Z,0.8
2023-01-17T13:16:12.117Z,0.8
2023-01-17T13:17:12.154Z,0.8
2023-01-17T13:18:12.138Z,0.8
2023-01-17T13:19:12.097Z,0
2023-01-17T13:20:12.150Z,0
2023-01-17T13:21:12.099Z,0
2023-01-17T13:22:12.149Z,0
2023-01-17T13:23:12.334Z,0
2023-01-17T13:24:12.208Z,0
2023-01-17T13:25:12.092Z,0
2023-01-17T13:26:12.108Z,0.8
2023-01-17T13:27:12.203Z,0.8
2023-01-17T13:28:12.192Z,0.8
2023-01-17T13:29:12.125Z,0.8
2023-01-17T13:30:12.123Z,0.8
2023-01-17T13:31:12.164Z,0.8
2023-01-17T13:32:12.097Z,0.9
2023-01-17T13:33:12.226Z,0.9
2023-01-17T13:34:12.158Z,0.9
2023-01-17T13:35:12.169Z,0.9
2023-01-17T13:36:12.134Z,1
2023-01-17T13:37:12.212Z,1
2023-01-17T13:38:12.187Z,1
2023-01-17T13:39:12.175Z,0.8
2023-01-17T13:40:12.159Z,0.8
2023-01-17T13:41:12.216Z,0.8
2023-01-17T13:42:12.146Z,0.8
2023-01-17T13:43:12.165Z,0.5
2023-01-17T13:44:12.142Z,0.5
2023-01-17T13:45:12.179Z,0.5
2023-01-17T13:46:12.136Z,1.8
2023-01-17T13:47:12.329Z,1.8
2023-01-17T13:48:12.168Z,1.8
2023-01-17T13:49:12.169Z,1.8
2023-01-17T13:50:12.179Z,2.2
2023-01-17T13:51:12.507Z,2.2
2023-01-17T13:52:12.173Z,2.2
2023-01-17T13:53:12.169Z,2.4
2023-01-17T13:54:12.155Z,2.4
2023-01-17T13:55:12.289Z,2.4
2023-01-17T13:56:12.216Z,0.8
2023-01-17T13:57:12.237Z,0.8
2023-01-17T13:58:12.200Z,0.8
2023-01-17T13:59:12.285Z,0.8
2023-01-17T14:00:12.189Z,1.9
2023-01-17T14:01:12.299Z,1.9
2023-01-17T14:02:12.308Z,1.9
2023-01-17T14:03:12.455Z,2.7
2023-01-17T14:04:12.215Z,2.7
2023-01-17T14:05:12.260Z,2.7